Time;durP1;ratioP1;P1;durP2;ratioP2;P2;SDS_P1;SDS_P2;PMS_P1;PMS_P2;Temp;Humidity;BMP_temperature;BMP_pressure;BME280_temperature;BME280_humidity;BME280_pressure;Samples;Min_cycle;Max_cycle;Signal;HPM_P1;HPM_P2
2023/07/12 00:01:21;;;;;;;3.30;1.90;;;;;;;14.31;100.00;100841.44;105635;1259;63963;-42
2023/07/12 00:03:49;;;;;;;4.70;2.10;;;;;;;14.31;100.00;100841.96;105643;1256;72646;-44
2023/07/12 00:06:19;;;;;;;10.90;2.20;;;;;;;14.31;100.00;100837.97;105657;1255;60793;-46
2023/07/12 00:08:47;;;;;;;2.20;2.00;;;;;;;14.31;100.00;100836.59;105653;1254;60437;-44
2023/07/12 00:11:16;;;;;;;3.70;1.70;;;;;;;14.31;100.00;100833.44;105656;1254;72635;-44
2023/07/12 00:13:44;;;;;;;3.30;2.50;;;;;;;14.33;100.00;100826.80;105668;1255;64366;-41
2023/07/12 00:16:20;;;;;;;12.00;2.10;;;;;;;14.34;100.00;100821.55;105646;1256;71003;-47
2023/07/12 00:18:48;;;;;;;2.00;1.90;;;;;;;14.35;100.00;100818.05;105660;1254;61644;-45
2023/07/12 00:21:24;;;;;;;7.40;2.00;;;;;;;14.36;100.00;100816.45;105630;1258;60365;-45
2023/07/12 00:23:53;;;;;;;6.10;1.90;;;;;;;14.37;100.00;100811.91;105653;1254;72900;-44
2023/07/12 00:26:29;;;;;;;3.80;2.00;;;;;;;14.37;100.00;100806.70;105691;1258;63990;-45
2023/07/12 00:28:57;;;;;;;5.20;2.30;;;;;;;14.37;100.00;100799.77;105644;1256;70451;-43
2023/07/12 00:31:25;;;;;;;5.50;2.10;;;;;;;14.35;100.00;100797.38;105626;1256;60686;-42
2023/07/12 00:33:55;;;;;;;8.50;2.40;;;;;;;14.34;100.00;100794.29;105672;1256;60373;-42
2023/07/12 00:36:25;;;;;;;8.60;2.50;;;;;;;14.33;100.00;100792.94;105676;1254;71622;-43
2023/07/12 00:38:52;;;;;;;5.50;2.00;;;;;;;14.30;100.00;100789.21;105670;1255;63547;-42
2023/07/12 00:41:42;;;;;;;6.00;2.20;;;;;;;14.27;100.00;100792.39;105602;1256;71372;-44
2023/07/12 00:44:13;;;;;;;5.20;2.10;;;;;;;14.24;100.00;100795.27;105552;1254;61675;-45
2023/07/12 00:46:42;;;;;;;7.20;2.40;;;;;;;14.19;100.00;100795.23;105659;1256;60505;-42
2023/07/12 00:49:10;;;;;;;2.90;2.00;;;;;;;14.13;100.00;100799.41;105652;1256;72703;-43
2023/07/12 00:51:50;;;;;;;8.00;2.30;;;;;;;14.04;100.00;100805.54;105600;1260;64073;-43
2023/07/12 00:54:19;;;;;;;7.70;2.20;;;;;;;13.95;100.00;100805.43;105625;1254;72594;-43
2023/07/12 00:56:46;;;;;;;2.40;2.20;;;;;;;13.85;100.00;100809.00;105654;1259;61607;-44
2023/07/12 00:59:19;;;;;;;3.00;2.30;;;;;;;13.75;100.00;100811.48;105668;1259;60471;-44
2023/07/12 01:01:48;;;;;;;5.20;2.50;;;;;;;13.66;100.00;100817.48;105675;1254;72614;-45
2023/07/12 01:04:24;;;;;;;6.40;2.40;;;;;;;13.56;100.00;100819.79;105621;1260;65159;-43
2023/07/12 01:06:52;;;;;;;5.20;2.30;;;;;;;13.49;100.00;100821.34;105640;1257;72660;-43
2023/07/12 01:09:19;;;;;;;7.50;2.40;;;;;;;13.48;100.00;100818.43;105618;1253;61717;-42
2023/07/12 01:11:47;;;;;;;6.50;2.20;;;;;;;13.47;100.00;100812.20;105562;1254;60397;-43
2023/07/12 01:14:16;;;;;;;6.70;2.50;;;;;;;13.43;100.00;100806.75;105659;1254;72229;-42
2023/07/12 01:16:49;;;;;;;7.20;2.30;;;;;;;13.39;100.00;100807.35;105640;1258;64117;-42
2023/07/12 01:19:16;;;;;;;3.10;2.00;;;;;;;13.35;100.00;100800.35;105667;1258;71385;-43
2023/07/12 01:21:46;;;;;;;3.90;2.30;;;;;;;13.31;100.00;100793.84;105688;1258;60560;-42
2023/07/12 01:24:14;;;;;;;3.10;1.90;;;;;;;13.28;100.00;100791.15;105663;1257;60371;-42
2023/07/12 01:26:45;;;;;;;5.60;2.60;;;;;;;13.25;100.00;100788.27;105666;1254;72975;-43
2023/07/12 01:29:13;;;;;;;4.00;2.30;;;;;;;13.21;100.00;100787.16;105670;1254;63868;-44
2023/07/12 01:31:42;;;;;;;3.50;2.00;;;;;;;13.17;100.00;100786.39;105665;1256;70100;-43
2023/07/12 01:34:09;;;;;;;10.10;2.00;;;;;;;13.12;100.00;100788.58;105660;1256;60592;-42
2023/07/12 01:36:37;;;;;;;7.00;2.40;;;;;;;13.11;100.00;100780.99;105631;1254;60565;-42
2023/07/12 01:39:05;;;;;;;4.70;2.40;;;;;;;13.11;100.00;100777.17;105626;1254;72794;-42
2023/07/12 01:41:33;;;;;;;5.40;2.20;;;;;;;13.10;100.00;100774.95;105703;1253;64029;-43
2023/07/12 01:44:01;;;;;;;3.30;2.10;;;;;;;13.10;100.00;100771.81;105701;1256;71720;-41
2023/07/12 01:46:29;;;;;;;3.80;2.40;;;;;;;13.13;100.00;100772.63;105689;1258;60425;-41
2023/07/12 01:48:57;;;;;;;2.80;2.40;;;;;;;13.18;100.00;100769.20;105649;1259;60397;-41
2023/07/12 01:51:25;;;;;;;9.30;2.40;;;;;;;13.25;100.00;100761.92;105660;1258;72622;-41
2023/07/12 01:53:52;;;;;;;8.70;2.70;;;;;;;13.32;100.00;100756.36;105677;1253;64347;-43
2023/07/12 01:56:20;;;;;;;8.40;2.60;;;;;;;13.40;100.00;100751.50;105673;1253;71444;-42
2023/07/12 01:58:48;;;;;;;6.00;2.00;;;;;;;13.46;100.00;100748.95;105642;1260;60889;-43
2023/07/12 02:01:16;;;;;;;9.00;1.80;;;;;;;13.52;100.00;100743.09;105679;1260;60649;-43
2023/07/12 02:03:44;;;;;;;3.10;1.90;;;;;;;13.58;100.00;100740.16;105696;1253;73782;-43
2023/07/12 02:06:12;;;;;;;4.80;1.80;;;;;;;13.64;100.00;100734.63;105697;1258;63943;-44
2023/07/12 02:08:40;;;;;;;3.50;2.20;;;;;;;13.69;100.00;100733.27;105654;1257;72800;-43
2023/07/12 02:11:07;;;;;;;5.20;1.80;;;;;;;13.74;100.00;100737.63;105607;1261;60559;-43
2023/07/12 02:13:36;;;;;;;5.00;2.10;;;;;;;13.79;100.00;100733.88;105709;1253;60458;-42
2023/07/12 02:16:04;;;;;;;10.10;2.20;;;;;;;13.85;100.00;100736.48;105649;1258;73809;-42
2023/07/12 02:18:35;;;;;;;3.70;1.90;;;;;;;13.90;100.00;100738.77;105662;1253;64319;-43
2023/07/12 02:21:02;;;;;;;4.10;1.70;;;;;;;13.95;100.00;100738.82;105677;1258;72634;-43
2023/07/12 02:23:33;;;;;;;4.50;1.90;;;;;;;13.98;100.00;100736.98;105640;1256;60678;-41
2023/07/12 02:26:02;;;;;;;6.70;1.90;;;;;;;14.02;100.00;100737.23;105674;1255;60385;-43
2023/07/12 02:28:30;;;;;;;10.80;2.40;;;;;;;14.05;100.00;100737.15;105644;1253;72659;-44
2023/07/12 02:31:21;;;;;;;7.70;2.10;;;;;;;14.10;100.00;100736.83;105658;1253;64068;-44
2023/07/12 02:33:49;;;;;;;6.20;2.10;;;;;;;14.17;100.00;100738.20;105678;1258;72606;-45
2023/07/12 02:36:17;;;;;;;4.30;2.00;;;;;;;14.22;100.00;100738.21;105672;1260;60449;-43
2023/07/12 02:38:46;;;;;;;10.70;2.10;;;;;;;14.27;100.00;100738.08;105679;1258;60339;-44
2023/07/12 02:41:16;;;;;;;10.70;2.50;;;;;;;14.33;100.00;100741.56;105672;1255;73908;-45
2023/07/12 02:43:44;;;;;;;2.60;1.60;;;;;;;14.38;100.00;100745.39;105680;1258;63921;-42
2023/07/12 02:46:12;;;;;;;9.00;1.90;;;;;;;14.44;100.00;100745.05;105650;1258;72714;-43
2023/07/12 02:48:39;;;;;;;8.50;2.00;;;;;;;14.51;100.00;100748.66;105633;1258;60563;-45
2023/07/12 02:51:07;;;;;;;5.10;2.20;;;;;;;14.58;100.00;100750.02;105638;1258;60505;-43
2023/07/12 02:53:36;;;;;;;3.60;2.20;;;;;;;14.66;100.00;100754.81;105669;1254;74024;-43
2023/07/12 02:56:08;;;;;;;4.90;2.20;;;;;;;14.73;100.00;100762.96;105667;1258;64136;-43
2023/07/12 02:58:36;;;;;;;6.80;2.20;;;;;;;14.81;100.00;100767.43;105687;1257;71414;-42
2023/07/12 03:01:03;;;;;;;6.60;2.30;;;;;;;14.88;100.00;100773.63;105632;1258;60566;-43
2023/07/12 03:03:34;;;;;;;5.70;2.00;;;;;;;14.93;100.00;100786.48;105651;1254;60426;-44
2023/07/12 03:06:07;;;;;;;3.60;2.20;;;;;;;15.00;100.00;100801.06;105608;1259;73800;-42
2023/07/12 03:08:34;;;;;;;2.70;2.10;;;;;;;15.04;100.00;100815.35;105673;1256;64384;-44
2023/07/12 03:11:03;;;;;;;3.90;2.40;;;;;;;15.07;100.00;100826.73;105696;1254;71438;-43
2023/07/12 03:13:31;;;;;;;6.10;2.20;;;;;;;15.13;100.00;100839.24;105655;1255;60556;-43
2023/07/12 03:15:59;;;;;;;6.40;2.50;;;;;;;15.18;100.00;100846.38;105641;1256;59998;-44
2023/07/12 03:18:27;;;;;;;5.40;2.40;;;;;;;15.27;100.00;100853.41;105602;1260;73823;-44
2023/07/12 03:21:02;;;;;;;4.00;2.40;;;;;;;15.35;100.00;100858.90;105680;1254;65166;-44
2023/07/12 03:23:30;;;;;;;9.10;2.70;;;;;;;15.41;100.00;100871.20;105668;1259;71680;-44
2023/07/12 03:25:58;;;;;;;4.30;2.50;;;;;;;15.48;100.00;100890.13;105620;1254;60816;-42
2023/07/12 03:28:26;;;;;;;8.40;2.50;;;;;;;15.53;100.00;100909.25;105626;1256;60569;-43
2023/07/12 03:31:02;;;;;;;7.60;2.70;;;;;;;15.58;100.00;100925.30;105589;1258;73776;-43
2023/07/12 03:33:30;;;;;;;3.20;2.20;;;;;;;15.62;100.00;100942.37;105662;1256;63941;-44
2023/07/12 03:35:58;;;;;;;10.80;2.20;;;;;;;15.66;100.00;100958.61;105701;1257;72692;-43
2023/07/12 03:38:26;;;;;;;8.60;2.40;;;;;;;15.70;100.00;100993.30;105607;1255;60971;-45
2023/07/12 03:40:58;;;;;;;2.20;1.40;;;;;;;15.76;100.00;101014.13;105679;1256;62047;-45
2023/07/12 03:43:26;;;;;;;5.50;2.00;;;;;;;15.84;100.00;101018.77;105701;1258;73791;-43
2023/07/12 03:45:53;;;;;;;5.20;2.00;;;;;;;15.91;100.00;101005.35;105686;1256;65202;-45
2023/07/12 03:48:23;;;;;;;2.10;1.70;;;;;;;15.97;100.00;100964.42;105583;1256;71378;-45
2023/07/12 03:50:52;;;;;;;7.00;2.00;;;;;;;16.06;100.00;100928.10;105671;1258;60554;-44
2023/07/12 03:53:20;;;;;;;4.60;2.20;;;;;;;16.25;100.00;100894.74;105712;1258;60642;-45
2023/07/12 03:55:48;;;;;;;6.20;2.10;;;;;;;16.47;100.00;100851.80;105655;1256;72624;-44
2023/07/12 03:58:18;;;;;;;5.20;2.10;;;;;;;16.71;100.00;100819.05;105641;1255;63789;-45
2023/07/12 04:00:48;;;;;;;5.70;2.10;;;;;;;16.94;100.00;100749.83;105681;1256;71471;-42
2023/07/12 04:03:16;;;;;;;6.80;2.50;;;;;;;17.17;100.00;100669.75;105680;1255;60464;-43
2023/07/12 04:05:48;;;;;;;6.40;2.40;;;;;;;17.46;100.00;100617.92;105712;1257;60989;-42
2023/07/12 04:08:17;;;;;;;2.30;2.10;;;;;;;17.75;100.00;100558.37;105633;1256;73885;-44
2023/07/12 04:10:44;;;;;;;3.30;1.90;;;;;;;18.02;100.00;100501.41;105661;1257;64156;-44
2023/07/12 04:13:12;;;;;;;3.30;2.00;;;;;;;18.25;100.00;100406.19;105613;1258;72624;-44
2023/07/12 04:15:40;;;;;;;2.30;2.10;;;;;;;18.40;100.00;100323.50;105631;1256;60420;-41
2023/07/12 04:18:07;;;;;;;5.30;2.00;;;;;;;18.45;100.00;100280.59;105726;1258;60426;-41
2023/07/12 04:20:38;;;;;;;5.40;2.00;;;;;;;18.49;100.00;100272.15;105667;1255;72660;-42
2023/07/12 04:23:06;;;;;;;4.20;2.20;;;;;;;18.57;100.00;100272.79;105648;1255;65358;-43
2023/07/12 04:25:34;;;;;;;3.90;2.30;;;;;;;18.61;100.00;100280.10;105646;1254;72590;-44
2023/07/12 04:28:01;;;;;;;3.50;1.80;;;;;;;18.62;100.00;100291.05;105628;1256;60614;-43
2023/07/12 04:30:29;;;;;;;4.40;2.30;;;;;;;18.74;100.00;100296.83;105632;1259;60422;-43
2023/07/12 04:32:56;;;;;;;5.80;2.60;;;;;;;18.89;100.00;100298.80;105649;1255;72602;-44
2023/07/12 04:35:24;;;;;;;5.20;2.30;;;;;;;19.01;100.00;100303.43;105701;1255;63937;-44
2023/07/12 04:37:52;;;;;;;3.80;2.00;;;;;;;19.23;100.00;100307.10;105653;1255;72674;-44
2023/07/12 04:40:20;;;;;;;7.60;1.90;;;;;;;19.53;100.00;100313.79;105627;1258;60423;-44
2023/07/12 04:42:47;;;;;;;2.70;2.00;;;;;;;19.76;100.00;100331.69;105696;1258;60381;-45
2023/07/12 04:45:15;;;;;;;3.10;2.00;;;;;;;19.95;100.00;100355.83;105655;1256;73837;-44
2023/07/12 04:47:44;;;;;;;3.00;1.40;;;;;;;20.12;100.00;100387.61;105677;1254;64103;-42
2023/07/12 04:50:12;;;;;;;2.50;1.90;;;;;;;20.14;100.00;100411.67;105662;1257;71382;-43
2023/07/12 04:52:40;;;;;;;4.80;1.70;;;;;;;20.14;100.00;100426.34;105684;1256;60459;-43
2023/07/12 04:55:23;;;;;;;7.30;1.80;;;;;;;20.04;100.00;100463.16;105653;1258;61186;-44
2023/07/12 04:57:51;;;;;;;2.00;1.80;;;;;;;19.93;100.00;100486.91;105674;1256;71617;-43
2023/07/12 05:00:19;;;;;;;3.20;1.60;;;;;;;19.77;100.00;100494.45;105697;1256;63933;-44
2023/07/12 05:02:47;;;;;;;5.60;2.20;;;;;;;19.62;100.00;100484.08;105710;1254;71453;-43
2023/07/12 05:05:16;;;;;;;4.10;1.40;;;;;;;19.52;100.00;100477.48;105675;1257;60579;-43
2023/07/12 05:07:43;;;;;;;1.60;1.40;;;;;;;19.46;100.00;100481.12;105652;1256;60480;-44
2023/07/12 05:10:11;;;;;;;3.20;1.40;;;;;;;19.48;100.00;100469.29;105654;1259;73857;-43
2023/07/12 05:12:40;;;;;;;2.20;1.60;;;;;;;19.53;100.00;100469.33;105625;1258;63940;-42
2023/07/12 05:15:08;;;;;;;7.10;1.50;;;;;;;19.58;100.00;100473.11;105670;1258;71891;-43
2023/07/12 05:17:36;;;;;;;2.20;1.70;;;;;;;19.68;100.00;100474.66;105638;1256;60533;-43
2023/07/12 05:20:05;;;;;;;5.00;1.60;;;;;;;19.78;100.00;100481.94;105695;1255;60513;-45
2023/07/12 05:22:33;;;;;;;1.70;1.50;;;;;;;19.77;100.00;100503.55;105674;1255;72661;-43
2023/07/12 05:25:01;;;;;;;5.70;1.60;;;;;;;19.74;100.00;100504.38;105626;1255;65537;-43
2023/07/12 05:27:29;;;;;;;5.30;1.70;;;;;;;19.80;100.00;100498.11;105635;1258;72656;-44
2023/07/12 05:29:57;;;;;;;1.70;1.60;;;;;;;19.86;100.00;100496.41;105658;1258;60458;-45
2023/07/12 05:32:24;;;;;;;6.10;1.60;;;;;;;19.92;100.00;100498.02;105697;1258;60525;-45
2023/07/12 05:34:52;;;;;;;7.10;1.30;;;;;;;20.03;100.00;100484.75;105611;1259;73836;-43
2023/07/12 05:37:20;;;;;;;4.30;1.60;;;;;;;20.06;100.00;100498.77;105635;1255;63651;-45
2023/07/12 05:39:48;;;;;;;4.10;1.60;;;;;;;19.99;100.00;100503.73;105648;1254;71681;-44
2023/07/12 05:43:45;;;;;;;2.60;1.60;;;;;;;19.99;100.00;100496.22;102391;1291;603845;-42
2023/07/12 05:46:14;;;;;;;6.20;1.50;;;;;;;20.15;100.00;100491.26;104782;1271;60343;-41
2023/07/12 05:48:40;;;;;;;8.00;1.70;;;;;;;20.35;100.00;100493.25;104820;1266;60041;-42
2023/07/12 05:51:08;;;;;;;2.70;1.40;;;;;;;20.64;100.00;100494.55;104843;1266;72170;-42
2023/07/12 05:53:35;;;;;;;3.60;1.70;;;;;;;20.83;100.00;100526.39;104812;1270;65197;-43
2023/07/12 05:56:04;;;;;;;2.40;1.60;;;;;;;20.83;100.00;100556.73;104633;1270;230427;-43
2023/07/12 05:58:31;;;;;;;2.50;1.50;;;;;;;20.96;100.00;100564.40;105068;1268;60687;-43
2023/07/12 06:00:59;;;;;;;2.60;1.40;;;;;;;20.98;100.00;100578.67;105082;1268;60087;-44
2023/07/12 06:03:27;;;;;;;5.40;1.50;;;;;;;20.94;100.00;100594.13;105091;1268;71075;-44
2023/07/12 06:05:54;;;;;;;3.10;1.60;;;;;;;21.01;100.00;100584.10;105619;1260;64490;-43
2023/07/12 06:08:23;;;;;;;6.70;1.50;;;;;;;21.14;100.00;100576.66;105644;1257;72652;-45
2023/07/12 06:10:50;;;;;;;8.30;1.40;;;;;;;21.19;100.00;100591.07;105935;1254;60112;-45
2023/07/12 06:13:18;;;;;;;2.30;1.70;;;;;;;21.38;100.00;100589.73;105930;1251;60287;-46
2023/07/12 06:15:45;;;;;;;4.40;1.50;;;;;;;21.62;100.00;100580.05;106121;1254;72768;-43
2023/07/12 06:18:12;;;;;;;2.20;1.50;;;;;;;21.62;100.00;100600.92;105943;1256;65527;-43
2023/07/12 06:20:40;;;;;;;2.90;1.50;;;;;;;21.69;100.00;100613.45;105852;1254;72811;-44
2023/07/12 06:23:07;;;;;;;1.70;1.50;;;;;;;21.85;100.00;100632.86;105800;1256;60189;-43
2023/07/12 06:25:34;;;;;;;10.00;2.70;;;;;;;22.02;100.00;100626.50;105777;1253;60180;-43
2023/07/12 06:28:02;;;;;;;5.20;1.70;;;;;;;22.19;100.00;100619.80;105862;1253;73024;-44
2023/07/12 06:30:30;;;;;;;2.00;1.40;;;;;;;22.35;98.86;100607.40;105753;1258;65422;-44
2023/07/12 06:32:57;;;;;;;2.00;1.80;;;;;;;22.39;92.23;100609.55;105827;1256;71568;-43
2023/07/12 06:35:25;;;;;;;3.50;1.60;;;;;;;22.39;93.84;100621.70;105860;1253;59674;-46
2023/07/12 06:37:54;;;;;;;2.30;1.10;;;;;;;22.38;92.78;100631.09;105969;1254;61485;-44
2023/07/12 06:40:21;;;;;;;4.70;1.30;;;;;;;22.42;93.28;100627.13;105867;1256;73768;-43
2023/07/12 06:42:48;;;;;;;2.60;1.20;;;;;;;22.39;76.34;100572.14;105906;1256;65345;-44
2023/07/12 06:45:15;;;;;;;1.40;1.10;;;;;;;22.37;75.11;100599.51;105954;1256;71303;-45
2023/07/12 06:47:42;;;;;;;1.90;1.10;;;;;;;22.35;72.42;100589.13;105871;1256;60198;-43
2023/07/12 06:50:10;;;;;;;2.60;1.20;;;;;;;22.34;72.83;100597.55;105904;1253;60070;-44
2023/07/12 06:52:37;;;;;;;1.60;1.00;;;;;;;22.24;71.78;100608.60;105977;1256;72928;-43
2023/07/12 06:55:04;;;;;;;2.20;1.30;;;;;;;22.33;71.50;100606.08;105889;1256;65362;-42
2023/07/12 06:57:33;;;;;;;1.30;1.20;;;;;;;22.46;66.88;100539.01;105846;1253;72382;-43
2023/07/12 07:00:05;;;;;;;1.20;1.00;;;;;;;22.50;66.93;100575.67;105953;1256;60305;-43
2023/07/12 07:02:35;;;;;;;2.60;1.10;;;;;;;22.40;65.98;100564.81;105951;1256;60216;-43
2023/07/12 07:05:04;;;;;;;4.10;1.20;;;;;;;22.17;63.99;100541.05;105830;1254;73469;-43
2023/07/12 07:07:32;;;;;;;5.40;1.80;;;;;;;21.97;64.52;100572.23;105908;1256;65464;-44
2023/07/12 07:09:58;;;;;;;2.20;2.10;;;;;;;21.80;64.33;100573.30;105905;1253;72576;-45
2023/07/12 07:12:26;;;;;;;2.10;1.90;;;;;;;21.70;65.38;100603.25;105793;1256;60215;-44
2023/07/12 07:14:53;;;;;;;2.50;1.80;;;;;;;21.79;68.68;100648.00;105826;1256;60360;-44
2023/07/12 07:17:21;;;;;;;1.60;1.50;;;;;;;21.93;65.27;100568.77;105853;1256;72752;-44
2023/07/12 07:19:48;;;;;;;1.70;1.60;;;;;;;21.92;65.31;100580.24;105976;1256;65478;-44
2023/07/12 07:22:15;;;;;;;2.30;2.20;;;;;;;21.86;65.36;100594.20;105809;1256;72338;-45
2023/07/12 07:24:43;;;;;;;3.20;2.80;;;;;;;21.77;66.08;100612.42;105883;1256;60359;-44
2023/07/12 07:27:13;;;;;;;2.20;2.10;;;;;;;21.74;66.66;100620.53;105845;1255;60120;-45
2023/07/12 07:29:43;;;;;;;3.20;2.10;;;;;;;21.62;66.56;100620.38;105848;1255;71765;-45
2023/07/12 07:32:11;;;;;;;4.00;2.40;;;;;;;21.65;67.71;100638.80;105821;1256;65332;-45
2023/07/12 07:34:38;;;;;;;4.20;1.90;;;;;;;21.86;69.09;100644.56;105841;1256;72754;-45
2023/07/12 07:37:05;;;;;;;3.40;1.80;;;;;;;22.10;66.09;100577.20;105881;1256;60113;-45
2023/07/12 07:39:33;;;;;;;2.10;1.70;;;;;;;22.47;68.63;100631.03;105871;1252;60074;-44
2023/07/12 07:42:01;;;;;;;2.00;1.90;;;;;;;22.96;66.50;100576.41;105752;1257;73043;-46
2023/07/12 07:44:31;;;;;;;2.60;1.90;;;;;;;23.25;65.21;100560.02;105852;1256;65494;-46
2023/07/12 07:46:58;;;;;;;1.50;1.40;;;;;;;23.48;65.20;100569.17;105859;1256;73683;-43
2023/07/12 07:49:26;;;;;;;2.10;1.90;;;;;;;23.39;61.83;100484.77;105861;1256;60384;-44
2023/07/12 07:51:54;;;;;;;2.00;1.70;;;;;;;22.93;60.12;100466.48;105883;1253;60065;-43
2023/07/12 07:54:21;;;;;;;3.70;2.40;;;;;;;22.49;61.50;100547.00;105877;1255;72066;-45
2023/07/12 07:56:49;;;;;;;1.80;1.70;;;;;;;22.41;65.51;100651.27;105823;1256;65366;-45
2023/07/12 07:59:16;;;;;;;1.60;1.50;;;;;;;22.74;66.37;100636.86;105917;1256;71516;-45
2023/07/12 08:01:43;;;;;;;2.70;1.50;;;;;;;23.17;62.57;100523.59;105900;1256;60057;-44
2023/07/12 08:04:10;;;;;;;2.60;1.60;;;;;;;23.56;57.15;100329.27;105861;1253;60329;-44
2023/07/12 08:06:38;;;;;;;2.60;2.10;;;;;;;23.86;56.77;100349.02;105882;1257;72961;-45
2023/07/12 08:09:07;;;;;;;4.10;3.10;;;;;;;24.06;54.85;100269.66;105664;1261;65765;-45
2023/07/12 08:11:35;;;;;;;5.00;2.20;;;;;;;23.96;56.19;100386.19;105896;1254;72732;-44
2023/07/12 08:14:03;;;;;;;2.40;2.30;;;;;;;23.74;55.60;100374.62;105962;1256;60239;-44
2023/07/12 08:16:33;;;;;;;3.60;2.10;;;;;;;23.23;56.52;100460.56;105941;1259;59640;-45
2023/07/12 08:19:03;;;;;;;1.70;1.60;;;;;;;22.78;58.93;100587.83;105970;1252;72970;-43
2023/07/12 08:21:43;;;;;;;3.30;1.40;;;;;;;22.74;59.07;100565.45;105873;1258;65899;-43
2023/07/12 08:24:10;;;;;;;2.50;1.50;;;;;;;22.92;59.39;100549.61;105880;1257;72647;-44
2023/07/12 08:26:38;;;;;;;3.00;1.30;;;;;;;23.25;59.07;100536.92;105909;1256;60319;-45
2023/07/12 08:29:09;;;;;;;2.00;1.20;;;;;;;23.46;57.89;100483.92;105905;1257;60234;-43
2023/07/12 08:31:37;;;;;;;1.10;1.10;;;;;;;23.22;55.49;100380.85;105879;1257;72745;-45
2023/07/12 08:34:04;;;;;;;2.70;1.30;;;;;;;22.80;55.43;100407.23;105881;1257;65529;-47
2023/07/12 08:36:31;;;;;;;1.70;1.30;;;;;;;22.55;57.43;100534.00;105905;1257;72838;-46
2023/07/12 08:38:58;;;;;;;1.70;1.40;;;;;;;22.49;57.65;100540.41;105834;1257;60114;-45
2023/07/12 08:41:26;;;;;;;1.30;1.30;;;;;;;22.57;60.15;100630.92;105926;1254;60213;-43
2023/07/12 08:43:53;;;;;;;2.90;1.30;;;;;;;22.98;58.47;100543.54;106017;1256;73400;-45
2023/07/12 08:46:25;;;;;;;1.50;1.40;;;;;;;23.33;57.23;100480.65;105902;1257;65435;-44
2023/07/12 08:48:58;;;;;;;1.20;1.20;;;;;;;23.40;57.46;100517.98;105933;1252;71303;-43
2023/07/12 08:51:30;;;;;;;1.30;1.20;;;;;;;23.34;55.39;100405.23;105701;1251;60470;-45
2023/07/12 08:53:58;;;;;;;8.00;1.60;;;;;;;23.16;53.91;100330.64;105899;1256;60273;-44
2023/07/12 08:56:26;;;;;;;4.90;1.00;;;;;;;22.94;55.20;100431.62;105739;1252;72900;-44
2023/07/12 08:58:53;;;;;;;4.80;1.40;;;;;;;23.03;56.82;100533.05;105810;1257;65535;-45
2023/07/12 09:01:43;;;;;;;1.10;1.10;;;;;;;23.12;57.12;100538.38;105953;1257;72376;-44
2023/07/12 09:04:28;;;;;;;1.30;1.20;;;;;;;22.97;54.75;100403.61;105748;1258;60389;-45
2023/07/12 09:07:00;;;;;;;2.30;1.10;;;;;;;22.94;55.18;100444.80;105751;1254;60627;-45
2023/07/12 09:09:38;;;;;;;1.20;1.10;;;;;;;23.05;56.28;100515.27;105693;1256;72726;-44
2023/07/12 09:12:12;;;;;;;1.10;1.00;;;;;;;23.40;55.90;100472.89;105848;1257;64165;-43
2023/07/12 09:14:42;;;;;;;1.70;1.00;;;;;;;23.85;54.72;100390.35;105698;1255;72728;-43
2023/07/12 09:17:21;;;;;;;1.20;1.10;;;;;;;23.86;52.56;100266.41;105802;1257;60313;-44
2023/07/12 09:19:50;;;;;;;1.90;1.70;;;;;;;23.52;52.94;100323.27;105800;1254;60319;-44
2023/07/12 09:22:17;;;;;;;1.80;1.70;;;;;;;23.34;56.41;100563.84;105847;1258;72979;-46
2023/07/12 09:24:55;;;;;;;1.30;1.30;;;;;;;23.50;56.35;100538.90;105904;1264;64285;-46
2023/07/12 09:27:23;;;;;;;2.10;1.40;;;;;;;23.67;52.69;100292.00;105859;1254;72575;-45
2023/07/12 09:30:00;;;;;;;2.40;1.00;;;;;;;23.69;52.77;100312.15;105968;1257;60533;-46
2023/07/12 09:32:34;;;;;;;1.40;1.10;;;;;;;24.05;52.61;100311.38;105899;1253;61952;-47
2023/07/12 09:35:29;;;;;;;2.90;1.10;;;;;;;24.31;49.37;100002.23;105942;1256;73193;-46
2023/07/12 09:38:00;;;;;;;4.30;1.30;;;;;;;24.30;50.01;100114.23;105908;1256;65500;-46
2023/07/12 09:40:37;;;;;;;1.60;1.20;;;;;;;24.05;52.07;100341.64;105702;1258;72655;-46
2023/07/12 09:43:04;;;;;;;1.10;1.10;;;;;;;24.14;52.21;100372.15;105856;1254;59749;-46
2023/07/12 09:45:34;;;;;;;3.80;1.20;;;;;;;23.99;51.43;100301.59;105806;1254;60697;-46
2023/07/12 09:48:28;;;;;;;2.50;1.10;;;;;;;23.69;51.78;100351.70;105826;1261;71771;-46
2023/07/12 09:51:21;;;;;;;1.30;1.20;;;;;;;23.76;51.71;100351.02;105694;1257;65555;-44
2023/07/12 09:54:15;;;;;;;2.10;1.10;;;;;;;23.93;51.11;100276.69;105880;1256;72581;-46
2023/07/12 09:56:52;;;;;;;1.70;1.30;;;;;;;24.15;50.35;100202.52;105860;1257;60480;-45
2023/07/12 09:59:30;;;;;;;1.90;1.10;;;;;;;24.26;53.11;100478.73;105855;1256;60560;-44
2023/07/12 10:02:20;;;;;;;3.30;1.00;;;;;;;24.23;49.14;100111.84;105880;1256;73665;-45
2023/07/12 10:04:55;;;;;;;2.40;1.10;;;;;;;23.44;50.42;100252.66;105714;1257;65327;-45
2023/07/12 10:07:53;;;;;;;3.00;1.10;;;;;;;22.85;52.11;100458.44;105786;1254;73082;-44
2023/07/12 10:10:43;;;;;;;1.30;1.20;;;;;;;22.41;53.80;100602.40;105837;1256;60450;-47
2023/07/12 10:13:40;;;;;;;1.10;1.00;;;;;;;22.40;54.69;100630.60;105776;1254;60428;-44
2023/07/12 10:16:17;;;;;;;1.20;1.20;;;;;;;22.63;54.94;100609.78;105856;1254;73788;-47
2023/07/12 10:18:45;;;;;;;1.30;1.00;;;;;;;22.85;52.91;100433.60;105910;1255;65239;-45
2023/07/12 10:21:17;;;;;;;2.90;1.30;;;;;;;23.18;54.53;100553.30;105849;1254;72641;-44
2023/07/12 10:23:58;;;;;;;1.90;1.30;;;;;;;23.73;52.51;100393.01;105858;1256;60463;-45
2023/07/12 10:26:24;;;;;;;2.80;1.40;;;;;;;24.20;53.09;100436.27;105841;1256;60533;-45
2023/07/12 10:28:55;;;;;;;1.10;0.90;;;;;;;24.59;51.63;100313.70;105905;1256;73826;-44
2023/07/12 10:31:55;;;;;;;3.50;1.00;;;;;;;24.62;50.32;100191.01;105858;1256;65534;-47
2023/07/12 10:34:27;;;;;;;2.50;1.20;;;;;;;24.20;51.77;100364.13;105675;1254;71671;-44
2023/07/12 10:37:06;;;;;;;1.10;1.10;;;;;;;23.97;52.61;100447.27;105861;1257;60351;-44
2023/07/12 10:39:33;;;;;;;3.00;1.10;;;;;;;24.07;53.37;100496.55;105898;1254;60479;-45
2023/07/12 10:42:06;;;;;;;1.90;1.10;;;;;;;24.29;54.17;100538.70;105665;1255;73871;-44
2023/07/12 10:44:40;;;;;;;3.20;1.40;;;;;;;24.49;51.96;100350.61;105715;1257;65462;-44
2023/07/12 10:47:10;;;;;;;1.20;1.10;;;;;;;24.58;51.54;100319.05;105923;1254;72603;-45
2023/07/12 10:49:52;;;;;;;1.10;1.10;;;;;;;24.61;50.71;100252.30;105722;1257;60364;-48
2023/07/12 10:52:32;;;;;;;1.00;1.00;;;;;;;24.56;48.94;100066.86;105891;1256;60342;-47
2023/07/12 10:55:03;;;;;;;2.70;1.00;;;;;;;24.69;49.87;100186.42;105932;1256;73519;-46
2023/07/12 10:57:46;;;;;;;3.00;1.10;;;;;;;24.87;50.53;100268.42;105832;1256;64388;-46
2023/07/12 11:00:30;;;;;;;1.60;1.30;;;;;;;25.06;48.96;100118.65;105846;1256;72601;-43
2023/07/12 11:03:02;;;;;;;1.60;1.40;;;;;;;25.11;48.48;100059.95;105744;1256;60435;-45
2023/07/12 11:05:41;;;;;;;1.50;1.50;;;;;;;25.20;49.81;100230.63;105853;1254;60556;-44
2023/07/12 11:08:29;;;;;;;1.50;1.40;;;;;;;25.35;49.84;100226.17;105866;1256;73788;-45
2023/07/12 11:11:09;;;;;;;1.40;1.20;;;;;;;25.42;49.77;100217.79;105901;1256;65229;-45
2023/07/12 11:13:42;;;;;;;3.00;1.20;;;;;;;25.39;49.57;100212.61;105916;1257;72618;-46
2023/07/12 11:16:15;;;;;;;6.50;1.20;;;;;;;25.19;48.74;100143.50;105902;1254;60555;-45
2023/07/12 11:18:56;;;;;;;1.80;1.00;;;;;;;24.67;48.61;100146.19;105929;1254;60425;-46
2023/07/12 11:21:50;;;;;;;1.80;1.10;;;;;;;24.10;51.03;100416.94;105865;1255;73645;-46
2023/07/12 11:24:52;;;;;;;5.80;1.10;;;;;;;24.06;51.12;100441.13;105895;1256;65443;-44
2023/07/12 11:27:43;;;;;;;1.80;0.90;;;;;;;24.29;52.56;100526.00;105887;1254;72844;-43
2023/07/12 11:30:34;;;;;;;1.20;0.90;;;;;;;24.71;51.50;100409.90;105866;1254;61010;-45